createdAt,value
2023-03-06T06:43:35.524Z,59.26
2023-03-06T06:47:05.861Z,59.26
2023-03-06T06:49:27.966Z,57.22
2023-03-06T06:52:13.584Z,56.12
2023-03-06T06:54:59.144Z,56.71
2023-03-06T06:57:44.745Z,57.47
2023-03-06T07:00:30.193Z,53.86
2023-03-06T07:03:15.929Z,56.00
2023-03-06T07:06:02.208Z,58.53
2023-03-06T07:08:47.824Z,59.95
2023-03-06T07:11:35.852Z,61.02
2023-03-06T07:14:21.439Z,62.33
2023-03-06T07:17:07.000Z,62.58
2023-03-06T07:19:53.686Z,62.91
2023-03-06T07:22:50.338Z,62.88
2023-03-06T07:25:37.329Z,63.24
2023-03-06T07:28:22.597Z,63.49
2023-03-06T07:31:10.369Z,63.32
2023-03-06T07:33:55.813Z,63.28
2023-03-06T07:36:41.980Z,62.92
2023-03-06T07:39:28.208Z,63.33
2023-03-06T07:42:14.999Z,62.92
2023-03-06T07:45:00.786Z,62.90
2023-03-06T07:47:45.999Z,62.56
2023-03-06T07:50:35.063Z,62.06
2023-03-06T07:53:22.974Z,61.40
2023-03-06T07:56:09.376Z,60.72
2023-03-06T07:58:57.032Z,60.70
2023-03-06T08:01:42.617Z,59.95
2023-03-06T08:04:29.137Z,59.05
2023-03-06T08:07:15.242Z,58.01
2023-03-06T08:10:01.255Z,56.97
2023-03-06T08:12:47.485Z,55.92
2023-03-06T08:15:32.763Z,55.11
2023-03-06T08:18:18.255Z,54.36
2023-03-06T08:21:09.895Z,53.23
2023-03-06T08:23:55.039Z,52.57
2023-03-06T08:26:41.665Z,52.81
2023-03-06T08:29:27.632Z,52.69
2023-03-06T08:32:12.916Z,53.29
2023-03-06T08:35:05.417Z,53.89
2023-03-06T08:37:51.710Z,52.87
2023-03-06T08:40:37.150Z,52.15
2023-03-06T08:43:22.841Z,51.32
2023-03-06T08:46:09.008Z,50.35
2023-03-06T08:48:54.426Z,48.78
2023-03-06T08:51:40.006Z,47.34
2023-03-06T08:54:26.184Z,46.54
2023-03-06T08:57:11.913Z,45.56
2023-03-06T08:59:58.227Z,43.87
2023-03-06T09:02:43.471Z,43.36
2023-03-06T09:05:28.905Z,42.41
2023-03-06T09:08:14.198Z,42.65
2023-03-06T09:11:01.634Z,43.68
2023-03-06T09:13:46.964Z,44.26
2023-03-06T09:16:32.751Z,43.18
2023-03-06T09:19:19.226Z,42.16
2023-03-06T09:22:05.370Z,41.60
2023-03-06T09:24:52.199Z,41.62
2023-03-06T09:27:37.740Z,41.62
2023-03-06T09:30:24.393Z,40.78
2023-03-06T09:33:09.862Z,41.03
2023-03-06T09:35:56.632Z,42.25
2023-03-06T09:38:41.916Z,41.38
2023-03-06T09:41:27.532Z,40.40
2023-03-06T09:44:15.344Z,37.26
2023-03-06T09:47:07.246Z,36.50
2023-03-06T09:50:14.467Z,34.86
2023-03-06T09:53:03.102Z,28.89
2023-03-06T09:56:15.479Z,26.26
2023-03-06T09:59:18.040Z,21.83
2023-03-06T10:02:15.199Z,20.97
2023-03-06T10:05:04.273Z,18.57
2023-03-06T10:08:00.961Z,18.66
2023-03-06T10:10:56.369Z,19.24
2023-03-06T10:13:47.465Z,17.47
2023-03-06T10:16:33.456Z,17.58
2023-03-06T10:19:21.353Z,16.80
2023-03-06T10:22:06.247Z,19.20
2023-03-06T10:25:11.901Z,17.72
2023-03-06T10:28:13.016Z,19.27
2023-03-06T10:31:15.884Z,18.87
2023-03-06T10:34:23.989Z,17.81
2023-03-06T10:37:21.623Z,17.47
2023-03-06T10:40:16.960Z,16.41
2023-03-06T10:43:11.470Z,17.72
2023-03-06T10:45:57.752Z,17.82
2023-03-06T10:48:43.002Z,18.66
2023-03-06T10:51:30.194Z,19.14
2023-03-06T10:54:15.350Z,18.22
2023-03-06T10:57:17.812Z,20.58
2023-03-06T11:00:13.911Z,23.62
2023-03-06T11:03:16.896Z,27.47
2023-03-06T11:06:02.638Z,31.59
2023-03-06T11:08:48.173Z,33.92
2023-03-06T11:11:37.793Z,36.81
2023-03-06T11:14:31.290Z,38.18
2023-03-06T11:17:32.177Z,40.13
2023-03-06T11:20:18.366Z,41.73
2023-03-06T11:23:13.109Z,44.32
2023-03-06T11:26:17.210Z,55.96
2023-03-06T11:29:07.411Z,63.09
2023-03-06T11:32:00.466Z,68.42
2023-03-06T11:35:17.067Z,76.28
2023-03-06T11:38:07.588Z,90.24
2023-03-06T11:40:58.094Z,91.93
2023-03-06T11:43:53.602Z,99.09
2023-03-06T11:46:43.564Z,100.00
2023-03-06T11:49:35.329Z,100.00
2023-03-06T11:52:33.414Z,100.00
2023-03-06T11:55:35.778Z,100.00
2023-03-06T11:58:52.368Z,98.66
2023-03-06T12:01:52.164Z,93.92
2023-03-06T12:04:45.942Z,81.43
2023-03-06T12:07:36.307Z,75.37
2023-03-06T12:10:26.221Z,71.69
2023-03-06T12:13:44.414Z,67.05
2023-03-06T12:16:48.076Z,62.27
2023-03-06T12:19:43.062Z,58.94
2023-03-06T12:22:57.571Z,56.22
2023-03-06T12:25:49.243Z,57.67
2023-03-06T12:28:50.302Z,58.21
2023-03-06T12:32:21.441Z,58.40
2023-03-06T12:35:30.469Z,58.33
2023-03-06T12:38:54.844Z,58.48
2023-03-06T12:41:50.847Z,58.35
2023-03-06T12:44:50.762Z,59.69
2023-03-06T12:47:41.587Z,63.17
2023-03-06T12:50:32.405Z,61.94
2023-03-06T12:53:29.302Z,66.26
2023-03-06T12:56:15.946Z,62.88
2023-03-06T12:59:02.635Z,64.71
2023-03-06T13:01:57.714Z,67.65
2023-03-06T13:05:01.517Z,68.57
2023-03-06T13:07:52.898Z,66.31
2023-03-06T13:10:40.521Z,74.45
